| time (UTC) | temp F | wind direction | speed MPH | gust MPH | rain 1hr in | rain 24hr in | rain mn in | humidity % | barometer mb |
| 20260902175614 | 73 | 45 | 2.0 | 2.0 | 0.00 | 0.10 | 0.01 | 74 | 1023.8 |
| 20260902174712 | 74 | 360 | 4.0 | 4.0 | 0.00 | 0.11 | 0.01 | 75 | 1023.7 |
| 20260902173715 | 74 | 45 | 2.0 | 2.0 | 0.00 | 0.12 | 0.01 | 75 | 1023.8 |
| 20260902172715 | 73 | 146 | 4.0 | 5.0 | 0.00 | 0.13 | 0.01 | 76 | 1023.6 |
| 20260902171714 | 73 | 86 | 0.0 | 1.0 | 0.00 | 0.14 | 0.01 | 78 | 1023.5 |
| 20260902170812 | 73 | 112 | 1.0 | 1.0 | 0.00 | 0.14 | 0.01 | 78 | 1023.8 |
| 20260902164912 | 72 | 23 | 4.0 | 5.0 | 0.00 | 0.14 | 0.01 | 80 | 1024.4 |
| 20260902163928 | 73 | 225 | 0.0 | 0.0 | 0.00 | 0.14 | 0.01 | 81 | 1024.6 |
| 20260902163013 | 73 | 172 | 2.0 | 4.0 | 0.00 | 0.14 | 0.01 | 83 | 1024.5 |
| 20260902161112 | 72 | 39 | 2.0 | 2.0 | 0.00 | 0.14 | 0.01 | 84 | 1024.5 |
| 20260902160115 | 72 | 112 | 4.0 | 4.0 | 0.00 | 0.14 | 0.01 | 85 | 1024.5 |
| 20260902155212 | 70 | 74 | 0.0 | 1.0 | 0.00 | 0.14 | 0.01 | 87 | 1024.7 |
| 20260902154216 | 70 | 112 | 2.0 | 2.0 | 0.00 | 0.14 | 0.01 | 86 | 1024.9 |
| 20260902153313 | 70 | 22 | 2.0 | 2.0 | 0.00 | 0.14 | 0.01 | 88 | 1025.0 |
| 20260902151314 | 69 | 67 | 3.0 | 3.0 | 0.00 | 0.14 | 0.01 | 90 | 1025.0 |
| 20260902150312 | 69 | 22 | 2.0 | 2.0 | 0.00 | 0.14 | 0.01 | 90 | 1025.0 |
| 20260902145313 | 69 | 111 | 3.0 | 4.0 | 0.00 | 0.14 | 0.01 | 92 | 1025.2 |
| 20260902144312 | 69 | 22 | 3.0 | 3.0 | 0.00 | 0.14 | 0.01 | 92 | 1025.0 |
| 20260902142409 | 68 | 112 | 1.0 | 1.0 | 0.01 | 0.14 | 0.01 | 93 | 1025.0 |
| 20260902140507 | 67 | 120 | 0.0 | 1.0 | 0.01 | 0.14 | 0.01 | 95 | 1024.7 |
| 20260902135509 | 66 | 48 | 0.0 | 1.0 | 0.01 | 0.14 | 0.01 | 95 | 1024.5 |
| 20260902133509 | 65 | 71 | 1.0 | 3.0 | 0.01 | 0.14 | 0.01 | 94 | 1024.6 |
| 20260902132510 | 65 | 47 | 5.0 | 8.0 | 0.00 | 0.13 | 0.00 | 94 | 1024.5 |
| 20260902131508 | 64 | 34 | 3.0 | 4.0 | 0.00 | 0.13 | 0.00 | 94 | 1024.4 |
| 20260902125507 | 63 | 45 | 1.0 | 3.0 | 0.00 | 0.13 | 0.00 | 94 | 1024.8 |
| 20260902123609 | 62 | 96 | 1.0 | 3.0 | 0.00 | 0.13 | 0.00 | 95 | 1025.0 |
| 20260902122609 | 62 | 42 | 0.0 | 0.0 | 0.00 | 0.13 | 0.00 | 94 | 1024.9 |
| 20260902115610 | 61 | 292 | 0.0 | 0.0 | 0.00 | 0.13 | 0.00 | 95 | 1025.1 |
| 20260902114609 | 61 | 292 | 0.0 | 0.0 | 0.00 | 0.13 | 0.00 | 94 | 1025.2 |
| 20260902113608 | 61 | 292 | 0.0 | 0.0 | 0.00 | 0.13 | 0.00 | 95 | 1025.2 |
| 20260902112610 | 61 | 292 | 0.0 | 0.0 | 0.00 | 0.13 | 0.00 | 95 | 1025.1 |
| 20260902111610 | 60 | 292 | 0.0 | 0.0 | 0.00 | 0.13 | 0.00 | 95 | 1024.9 |
| 20260902110708 | 60 | 292 | 0.0 | 0.0 | 0.00 | 0.13 | 0.00 | 95 | 1025.0 |
| 20260902104709 | 60 | 292 | 0.0 | 0.0 | 0.00 | 0.13 | 0.00 | 95 | 1024.7 |
| 20260902103807 | 60 | 292 | 0.0 | 0.0 | 0.00 | 0.13 | 0.00 | 95 | 1024.5 |
| 20260902102809 | 60 | 292 | 0.0 | 0.0 | 0.00 | 0.13 | 0.00 | 95 | 1024.4 |
| 20260902101809 | 60 | 292 | 0.0 | 0.0 | 0.00 | 0.13 | 0.00 | 95 | 1024.5 |
| 20260902100810 | 60 | 292 | 0.0 | 0.0 | 0.00 | 0.13 | 0.00 | 95 | 1024.3 |
| 20260902094909 | 60 | 292 | 0.0 | 0.0 | 0.00 | 0.13 | 0.00 | 94 | 1024.2 |
| 20260902093909 | 60 | 292 | 0.0 | 0.0 | 0.00 | 0.13 | 0.00 | 94 | 1024.0 |
| 20260902092909 | 60 | 292 | 0.0 | 0.0 | 0.00 | 0.13 | 0.00 | 94 | 1024.1 |
| 20260902091910 | 59 | 292 | 0.0 | 0.0 | 0.00 | 0.13 | 0.00 | 94 | 1023.5 |
| 20260902090909 | 60 | 292 | 0.0 | 0.0 | 0.00 | 0.13 | 0.00 | 94 | 1023.8 |
| 20260902085008 | 59 | 292 | 0.0 | 0.0 | 0.00 | 0.13 | 0.00 | 93 | 1023.8 |
| 20260902084008 | 59 | 292 | 0.0 | 0.0 | 0.00 | 0.13 | 0.00 | 94 | 1023.5 |
| 20260902083007 | 59 | 292 | 0.0 | 0.0 | 0.00 | 0.13 | 0.00 | 94 | 1023.6 |
| 20260902082010 | 59 | 292 | 0.0 | 0.0 | 0.00 | 0.13 | 0.00 | 93 | 1023.5 |
| 20260902081009 | 59 | 292 | 0.0 | 0.0 | 0.00 | 0.13 | 0.00 | 94 | 1023.7 |
| 20260902080008 | 59 | 292 | 0.0 | 0.0 | 0.00 | 0.13 | 0.00 | 94 | 1023.6 |
| 20260902074010 | 60 | 292 | 0.0 | 0.0 | 0.00 | 0.13 | 0.00 | 94 | 1023.6 |
| 20260902073910 | 60 | 292 | 0.0 | 0.0 | 0.00 | 0.13 | 0.00 | 94 | 1023.8 |
| 20260902072907 | 60 | 292 | 0.0 | 0.0 | 0.00 | 0.13 | 0.00 | 93 | 1023.8 |
| 20260902070909 | 60 | 292 | 0.0 | 0.0 | 0.00 | 0.13 | 0.00 | 94 | 1023.8 |
| 20260902065910 | 60 | 292 | 0.0 | 0.0 | 0.00 | 0.13 | 0.00 | 94 | 1023.6 |
| 20260902064909 | 60 | 292 | 0.0 | 0.0 | 0.00 | 0.13 | 0.00 | 94 | 1023.7 |
| 20260902063007 | 60 | 292 | 0.0 | 0.0 | 0.00 | 0.13 | 0.00 | 94 | 1023.4 |
| 20260902062010 | 60 | 292 | 0.0 | 0.0 | 0.00 | 0.13 | 0.00 | 93 | 1023.6 |
| 20260902060208 | 59 | 292 | 0.0 | 0.0 | 0.00 | 0.13 | 0.00 | 92 | 1023.5 |
| 20260902055210 | 60 | 292 | 0.0 | 0.0 | 0.00 | 0.13 | 0.00 | 93 | 1023.5 |
| 20260902054210 | 59 | 292 | 0.0 | 0.0 | 0.00 | 0.13 | 0.00 | 93 | 1023.6 |
| 20260902053308 | 59 | 292 | 0.0 | 0.0 | 0.00 | 0.13 | 0.00 | 93 | 1023.6 |
| 20260902052408 | 59 | 292 | 0.0 | 0.0 | 0.00 | 0.13 | 0.00 | 93 | 1023.5 |
| 20260902051407 | 59 | 292 | 0.0 | 0.0 | 0.00 | 0.13 | 0.00 | 92 | 1023.4 |
| 20260902050410 | 59 | 292 | 0.0 | 0.0 | 0.00 | 0.13 | 0.00 | 93 | 1023.3 |
| 20260902044409 | 59 | 292 | 0.0 | 0.0 | 0.00 | 0.13 | 0.00 | 93 | 1023.2 |
| 20260902043408 | 59 | 292 | 0.0 | 0.0 | 0.00 | 0.13 | 0.00 | 93 | 1022.9 |
| 20260902042425 | 59 | 292 | 0.0 | 0.0 | 0.00 | 0.13 | 0.00 | 93 | 1022.8 |
| 20260902040408 | 59 | 292 | 0.0 | 0.0 | 0.00 | 0.13 | 0.00 | 92 | 1022.6 |
| 20260902035420 | 59 | 292 | 0.0 | 0.0 | 0.00 | 0.13 | 0.13 | 91 | 1022.6 |
| 20260902034418 | 60 | 292 | 0.0 | 0.0 | 0.00 | 0.13 | 0.13 | 92 | 1022.3 |
| 20260902033417 | 60 | 292 | 0.0 | 0.0 | 0.00 | 0.13 | 0.13 | 91 | 1022.1 |
| 20260902032417 | 60 | 292 | 0.0 | 0.0 | 0.00 | 0.13 | 0.13 | 91 | 1022.0 |
| 20260902031516 | 60 | 292 | 0.0 | 0.0 | 0.00 | 0.13 | 0.13 | 91 | 1022.0 |
| 20260902030516 | 60 | 292 | 0.0 | 0.0 | 0.00 | 0.13 | 0.13 | 92 | 1022.3 |
| 20260902025517 | 60 | 292 | 0.0 | 0.0 | 0.00 | 0.13 | 0.13 | 91 | 1022.4 |
| 20260902024517 | 60 | 292 | 0.0 | 0.0 | 0.00 | 0.13 | 0.13 | 92 | 1022.2 |
| 20260902023516 | 60 | 292 | 0.0 | 0.0 | 0.00 | 0.13 | 0.13 | 91 | 1022.3 |
| 20260902020518 | 60 | 292 | 0.0 | 0.0 | 0.00 | 0.13 | 0.13 | 90 | 1022.5 |
| 20260902015518 | 60 | 292 | 0.0 | 0.0 | 0.00 | 0.13 | 0.13 | 91 | 1022.4 |
| 20260902014616 | 60 | 292 | 0.0 | 0.0 | 0.00 | 0.13 | 0.13 | 91 | 1022.4 |
| 20260902013618 | 60 | 292 | 0.0 | 0.0 | 0.00 | 0.13 | 0.13 | 90 | 1022.3 |
| 20260902012716 | 60 | 292 | 0.0 | 0.0 | 0.00 | 0.13 | 0.13 | 90 | 1022.2 |
| 20260902011720 | 60 | 292 | 0.0 | 0.0 | 0.00 | 0.13 | 0.13 | 91 | 1022.0 |
| 20260902010816 | 60 | 292 | 0.0 | 0.0 | 0.00 | 0.13 | 0.13 | 91 | 1022.4 |
| 20260902005817 | 60 | 292 | 0.0 | 0.0 | 0.00 | 0.13 | 0.13 | 91 | 1022.3 |
| 20260902004817 | 60 | 292 | 0.0 | 0.0 | 0.00 | 0.13 | 0.13 | 91 | 1022.1 |
| 20260902003816 | 60 | 292 | 0.0 | 0.0 | 0.00 | 0.13 | 0.13 | 90 | 1021.9 |
| 20260902002817 | 60 | 292 | 0.0 | 0.0 | 0.00 | 0.13 | 0.13 | 90 | 1021.7 |
| 20260902001716 | 60 | 292 | 0.0 | 0.0 | 0.00 | 0.13 | 0.13 | 90 | 1021.8 |
| 20260902000718 | 60 | 292 | 0.0 | 0.0 | 0.00 | 0.13 | 0.13 | 90 | 1021.8 |
| 20260901235720 | 60 | 292 | 0.0 | 0.0 | 0.00 | 0.13 | 0.13 | 90 | 1021.6 |
| 20260901234816 | 60 | 292 | 0.0 | 0.0 | 0.00 | 0.13 | 0.13 | 90 | 1021.7 |
| 20260901232819 | 61 | 292 | 0.0 | 0.0 | 0.00 | 0.13 | 0.13 | 89 | 1021.8 |
| 20260901231918 | 61 | 270 | 0.0 | 0.0 | 0.00 | 0.13 | 0.13 | 90 | 1021.8 |
| 20260901231015 | 61 | 180 | 0.0 | 0.0 | 0.00 | 0.13 | 0.13 | 90 | 1021.8 |
| 20260901230017 | 61 | 225 | 0.0 | 0.0 | 0.00 | 0.13 | 0.13 | 90 | 1021.8 |
| 20260901225019 | 61 | 225 | 0.0 | 0.0 | 0.00 | 0.13 | 0.13 | 89 | 1021.6 |
| 20260901224018 | 61 | 270 | 0.0 | 0.0 | 0.00 | 0.13 | 0.13 | 90 | 1021.4 |
| 20260901223115 | 62 | 251 | 0.0 | 0.0 | 0.00 | 0.13 | 0.13 | 90 | 1021.5 |
| 20260901221217 | 62 | 227 | 2.0 | 4.0 | 0.00 | 0.13 | 0.13 | 90 | 1021.6 |
| 20260901220219 | 62 | 202 | 0.0 | 0.0 | 0.00 | 0.13 | 0.13 | 90 | 1021.4 |
| 20260901215318 | 62 | 294 | 0.0 | 1.0 | 0.00 | 0.13 | 0.13 | 91 | 1021.3 |
| 20260901214415 | 63 | 214 | 0.0 | 1.0 | 0.00 | 0.13 | 0.13 | 91 | 1021.3 |
| 20260901211418 | 63 | 253 | 1.0 | 2.0 | 0.00 | 0.13 | 0.13 | 90 | 1021.3 |
| 20260901210516 | 63 | 163 | 0.0 | 0.0 | 0.00 | 0.13 | 0.13 | 91 | 1021.2 |
| 20260901205615 | 63 | 244 | 1.0 | 2.0 | 0.00 | 0.13 | 0.13 | 91 | 1021.2 |
| 20260901204619 | 64 | 103 | 0.0 | 0.0 | 0.00 | 0.13 | 0.13 | 91 | 1021.1 |
| 20260901203616 | 64 | 216 | 0.0 | 1.0 | 0.00 | 0.13 | 0.13 | 91 | 1020.9 |
| 20260901202617 | 64 | 204 | 0.0 | 1.0 | 0.00 | 0.13 | 0.13 | 90 | 1020.6 |
| 20260901201717 | 64 | 270 | 0.0 | 1.0 | 0.00 | 0.13 | 0.13 | 91 | 1020.6 |
| 20260901200718 | 64 | 276 | 0.0 | 1.0 | 0.00 | 0.13 | 0.13 | 90 | 1020.4 |
| 20260901194816 | 64 | 112 | 0.0 | 0.0 | 0.02 | 0.13 | 0.13 | 91 | 1020.6 |
| 20260901193832 | 64 | 247 | 0.0 | 0.0 | 0.03 | 0.13 | 0.13 | 90 | 1020.6 |
| 20260901191817 | 64 | 207 | 1.0 | 3.0 | 0.08 | 0.13 | 0.13 | 91 | 1020.6 |
| 20260901190818 | 64 | 107 | 0.0 | 1.0 | 0.08 | 0.13 | 0.13 | 91 | 1020.6 |
| 20260901185816 | 65 | 84 | 0.0 | 1.0 | 0.08 | 0.12 | 0.12 | 91 | 1020.4 |
| 20260901184818 | 65 | 83 | 1.0 | 2.0 | 0.08 | 0.11 | 0.11 | 91 | 1020.5 |
| 20260901183818 | 65 | 186 | 1.0 | 3.0 | 0.08 | 0.10 | 0.10 | 91 | 1020.7 |
| 20260901182817 | 65 | 22 | 0.0 | 0.0 | 0.07 | 0.08 | 0.08 | 90 | 1020.6 |
| 20260901181916 | 65 | 225 | 0.0 | 1.0 | 0.05 | 0.05 | 0.05 | 91 | 1020.5 |
| 20260901180918 | 65 | 202 | 3.0 | 3.0 | 0.05 | 0.05 | 0.05 | 90 | 1020.2 |